createdAt,value
2022-11-13T00:00:05.736Z,101588.22
2022-11-13T00:02:51.826Z,101590.69
2022-11-13T00:05:37.662Z,101580.59
2022-11-13T00:08:23.413Z,101570.69
2022-11-13T00:11:12.024Z,101574.31
2022-11-13T00:13:58.411Z,101581.66
2022-11-13T00:16:44.445Z,101575.34
2022-11-13T00:19:30.020Z,101576.00
2022-11-13T00:22:15.845Z,101579.84
2022-11-13T00:25:01.477Z,101580.62
2022-11-13T00:27:47.359Z,101582.03
2022-11-13T00:30:33.372Z,101580.19
2022-11-13T00:33:31.978Z,101584.03
2022-11-13T00:36:26.407Z,101581.22
2022-11-13T00:39:12.375Z,101586.94
2022-11-13T00:41:58.110Z,101583.06
2022-11-13T00:44:44.732Z,101583.44
2022-11-13T00:47:30.598Z,101593.66
2022-11-13T00:50:16.455Z,101583.53
2022-11-13T00:53:02.146Z,101578.56
2022-11-13T00:55:47.746Z,101586.63
2022-11-13T00:58:33.518Z,101584.50
2022-11-13T01:01:20.597Z,101587.91
2022-11-13T01:04:06.591Z,101594.25
2022-11-13T01:06:52.365Z,101584.25
2022-11-13T01:09:38.067Z,101576.16
2022-11-13T01:12:23.941Z,101583.81
2022-11-13T01:15:09.774Z,101569.47
2022-11-13T01:17:55.796Z,101569.37
2022-11-13T01:20:41.722Z,101564.38
2022-11-13T01:23:27.532Z,101561.66
2022-11-13T01:26:16.607Z,101559.06
2022-11-13T01:29:02.091Z,101560.53
2022-11-13T01:31:48.001Z,101573.34
2022-11-13T01:34:33.875Z,101557.19
2022-11-13T01:37:19.706Z,101552.03
2022-11-13T01:40:05.665Z,101561.06
2022-11-13T01:42:51.608Z,101555.50
2022-11-13T01:45:58.674Z,101558.31
2022-11-13T01:48:55.392Z,101557.41
2022-11-13T01:51:50.146Z,101551.47
2022-11-13T01:54:39.631Z,101556.19
2022-11-13T01:57:25.645Z,101545.78
2022-11-13T02:00:12.795Z,101541.84
2022-11-13T02:02:58.547Z,101529.81
2022-11-13T02:05:44.325Z,101529.34
2022-11-13T02:08:30.392Z,101528.69
2022-11-13T02:11:16.962Z,101529.00
2022-11-13T02:14:03.175Z,101524.66
2022-11-13T02:16:51.505Z,101524.84
2022-11-13T02:19:40.892Z,101521.09
2022-11-13T02:22:48.835Z,101522.50
2022-11-13T02:25:34.788Z,101531.13
2022-11-13T02:28:20.490Z,101520.66
2022-11-13T02:31:08.892Z,101516.44
2022-11-13T02:33:54.772Z,101518.22
2022-11-13T02:36:40.349Z,101515.81
2022-11-13T02:39:26.287Z,101516.06
2022-11-13T02:42:12.009Z,101518.59
2022-11-13T02:44:57.609Z,101515.28
2022-11-13T02:47:43.746Z,101507.06
2022-11-13T02:50:29.756Z,101515.81
2022-11-13T02:53:15.368Z,101512.50
2022-11-13T02:56:01.104Z,101501.53
2022-11-13T02:58:46.916Z,101513.78
2022-11-13T03:01:32.528Z,101514.00
2022-11-13T03:04:18.779Z,101514.84
2022-11-13T03:07:04.845Z,101518.66
2022-11-13T03:09:50.810Z,101522.56
2022-11-13T03:12:36.813Z,101520.66
2022-11-13T03:15:23.008Z,101530.66
2022-11-13T03:18:08.976Z,101523.53
2022-11-13T03:20:54.679Z,101525.63
2022-11-13T03:23:41.442Z,101523.62
2022-11-13T03:26:29.862Z,101514.47
2022-11-13T03:29:15.707Z,101515.22
2022-11-13T03:32:03.298Z,101518.31
2022-11-13T03:34:49.236Z,101513.94
2022-11-13T03:37:34.946Z,101511.34
2022-11-13T03:40:20.515Z,101520.78
2022-11-13T03:43:06.239Z,101516.78
2022-11-13T03:45:52.215Z,101516.25
2022-11-13T03:48:37.945Z,101525.59
2022-11-13T03:51:23.660Z,101515.94
2022-11-13T03:54:09.325Z,101514.97
2022-11-13T03:56:54.970Z,101510.56
2022-11-13T03:59:40.899Z,101501.81
2022-11-13T04:02:26.564Z,101505.53
2022-11-13T04:05:12.703Z,101510.34
2022-11-13T04:07:58.393Z,101522.53
2022-11-13T04:10:44.852Z,101512.59
2022-11-13T04:13:30.598Z,101524.66
2022-11-13T04:16:16.338Z,101520.97
2022-11-13T04:19:02.379Z,101523.34
2022-11-13T04:21:48.136Z,101520.06
2022-11-13T04:24:33.760Z,101513.09
2022-11-13T04:27:19.387Z,101519.41
2022-11-13T04:30:05.688Z,101519.53
2022-11-13T04:32:51.306Z,101516.50
2022-11-13T04:35:37.025Z,101518.50
2022-11-13T04:38:22.606Z,101516.09
2022-11-13T04:41:27.336Z,101516.28
2022-11-13T04:44:13.356Z,101530.81
2022-11-13T04:46:59.047Z,101525.50
2022-11-13T04:49:44.758Z,101519.59
2022-11-13T04:52:30.600Z,101512.84
2022-11-13T04:55:16.232Z,101509.66
2022-11-13T04:58:02.011Z,101514.66
2022-11-13T05:00:47.643Z,101513.34
2022-11-13T05:03:33.398Z,101511.22
2022-11-13T05:06:19.404Z,101508.84
2022-11-13T05:09:05.437Z,101510.38
2022-11-13T05:11:51.300Z,101507.53
2022-11-13T05:14:40.669Z,101521.44
2022-11-13T05:17:26.257Z,101513.03
2022-11-13T05:20:12.173Z,101518.00
2022-11-13T05:22:57.768Z,101518.81
2022-11-13T05:25:44.521Z,101502.66
2022-11-13T05:28:30.428Z,101496.78
2022-11-13T05:31:16.719Z,101499.41
2022-11-13T05:34:06.215Z,101511.13
2022-11-13T05:36:52.316Z,101517.03
2022-11-13T05:39:37.974Z,101520.44
2022-11-13T05:42:23.555Z,101510.72
2022-11-13T05:45:09.820Z,101511.78
2022-11-13T05:47:55.498Z,101510.75
2022-11-13T05:50:41.265Z,101505.97
2022-11-13T05:53:26.912Z,101486.16
2022-11-13T05:56:20.672Z,101501.72
2022-11-13T05:59:06.632Z,101498.88
2022-11-13T06:01:52.481Z,101493.91
2022-11-13T06:04:38.663Z,101479.72
2022-11-13T06:07:24.661Z,101483.25
2022-11-13T06:10:10.705Z,101487.75
2022-11-13T06:12:56.392Z,101500.34
2022-11-13T06:15:42.214Z,101491.81
2022-11-13T06:18:28.647Z,101501.50
2022-11-13T06:21:21.003Z,101496.16
2022-11-13T06:24:07.396Z,101492.59
2022-11-13T06:26:53.793Z,101502.91
2022-11-13T06:29:39.426Z,101501.81
2022-11-13T06:32:25.157Z,101500.88
2022-11-13T06:35:11.077Z,101507.13
2022-11-13T06:37:56.824Z,101497.16
2022-11-13T06:40:42.815Z,101496.25
2022-11-13T06:43:28.917Z,101502.88
2022-11-13T06:46:19.341Z,101498.34
2022-11-13T06:49:04.946Z,101506.94
2022-11-13T06:51:50.670Z,101510.19
2022-11-13T06:54:36.378Z,101522.53
2022-11-13T06:57:22.663Z,101516.41
2022-11-13T07:00:09.393Z,101513.44
2022-11-13T07:02:55.086Z,101515.84
2022-11-13T07:05:41.718Z,101516.88
2022-11-13T07:08:27.735Z,101523.94
2022-11-13T07:11:19.370Z,101528.75
2022-11-13T07:14:05.120Z,101527.63
2022-11-13T07:17:08.512Z,101536.75
2022-11-13T07:19:55.650Z,101529.72
2022-11-13T07:22:41.237Z,101525.25
2022-11-13T07:25:27.671Z,101528.22
2022-11-13T07:28:13.449Z,101527.47
2022-11-13T07:30:59.713Z,101532.97
2022-11-13T07:33:48.096Z,101517.56
2022-11-13T07:36:33.597Z,101523.91
2022-11-13T07:39:19.242Z,101511.37
2022-11-13T07:42:05.063Z,101514.63
2022-11-13T07:44:55.068Z,101520.53
2022-11-13T07:47:41.607Z,101521.72
2022-11-13T07:50:33.894Z,101526.25
2022-11-13T07:53:20.527Z,101521.25
2022-11-13T07:56:07.134Z,101509.91
2022-11-13T07:58:52.936Z,101521.03
2022-11-13T08:01:38.722Z,101524.78
2022-11-13T08:04:25.832Z,101521.00
2022-11-13T08:07:13.178Z,101522.78
2022-11-13T08:09:58.979Z,101517.03
2022-11-13T08:12:45.318Z,101516.72
2022-11-13T08:15:31.753Z,101517.25
2022-11-13T08:18:17.615Z,101519.69
2022-11-13T08:21:04.615Z,101514.53
2022-11-13T08:23:50.518Z,101515.56
2022-11-13T08:26:39.051Z,101510.09
2022-11-13T08:29:24.974Z,101520.97
2022-11-13T08:32:10.717Z,101511.75
2022-11-13T08:34:56.549Z,101527.16
2022-11-13T08:37:42.399Z,101522.13
2022-11-13T08:40:28.667Z,101515.53
2022-11-13T08:43:14.703Z,101511.84
2022-11-13T08:46:00.336Z,101508.72
2022-11-13T08:48:46.086Z,101501.94
2022-11-13T08:51:31.765Z,101499.19
2022-11-13T08:54:17.784Z,101498.75
2022-11-13T08:57:06.090Z,101497.69
2022-11-13T08:59:51.966Z,101502.62
2022-11-13T09:02:37.663Z,101499.69
2022-11-13T09:05:24.224Z,101501.47
2022-11-13T09:08:10.722Z,101510.12
2022-11-13T09:10:56.639Z,101506.62
2022-11-13T09:13:45.086Z,101502.06
2022-11-13T09:16:33.640Z,101502.16
2022-11-13T09:19:19.505Z,101497.56
2022-11-13T09:22:05.157Z,101506.53
2022-11-13T09:24:50.949Z,101508.19
2022-11-13T09:27:36.805Z,101506.34
2022-11-13T09:30:23.322Z,101499.69
2022-11-13T09:33:10.301Z,101501.44
2022-11-13T09:35:55.977Z,101501.56
2022-11-13T09:38:42.540Z,101502.88
2022-11-13T09:41:30.599Z,101497.66
2022-11-13T09:44:20.852Z,101487.03
2022-11-13T09:47:28.401Z,101491.56
2022-11-13T09:50:20.744Z,101483.81
2022-11-13T09:53:06.538Z,101487.66
2022-11-13T09:56:06.900Z,101479.28
2022-11-13T09:59:25.083Z,101476.78
2022-11-13T10:02:21.248Z,101467.91
2022-11-13T10:05:13.498Z,101460.31
2022-11-13T10:08:21.873Z,101457.50
2022-11-13T10:11:28.832Z,101451.97
2022-11-13T10:14:42.202Z,101447.06
2022-11-13T10:17:49.094Z,101435.56
2022-11-13T10:20:48.643Z,101434.28
2022-11-13T10:23:37.353Z,101427.22
2022-11-13T10:26:24.917Z,101426.56
2022-11-13T10:29:18.160Z,101420.19
2022-11-13T10:32:27.748Z,101429.13
2022-11-13T10:35:45.607Z,101432.28
2022-11-13T10:38:42.869Z,101420.88
2022-11-13T10:41:29.185Z,101408.19
2022-11-13T10:44:21.046Z,101400.41
2022-11-13T10:47:26.423Z,101404.09
2022-11-13T10:50:28.091Z,101395.38
2022-11-13T10:53:16.854Z,101390.59
2022-11-13T10:56:12.965Z,101387.16
2022-11-13T10:59:26.182Z,101387.41
2022-11-13T11:02:11.875Z,101386.16
2022-11-13T11:05:03.427Z,101381.97
2022-11-13T11:07:49.656Z,101374.00
2022-11-13T11:10:36.724Z,101362.69
2022-11-13T11:13:23.903Z,101360.28
2022-11-13T11:16:13.797Z,101357.19
2022-11-13T11:19:02.174Z,101351.28
2022-11-13T11:21:51.744Z,101349.22
2022-11-13T11:24:51.502Z,101350.88
2022-11-13T11:27:47.784Z,101344.94
2022-11-13T11:30:40.635Z,101353.06
2022-11-13T11:33:37.831Z,101351.97
2022-11-13T11:36:36.939Z,101345.37
2022-11-13T11:39:40.142Z,101342.03
2022-11-13T11:42:47.355Z,101342.47
2022-11-13T11:45:37.526Z,101339.03
2022-11-13T11:48:27.291Z,101338.22
2022-11-13T11:51:35.986Z,101334.28
2022-11-13T11:54:40.315Z,101323.31
2022-11-13T11:57:47.682Z,101318.19
2022-11-13T12:00:34.686Z,101315.81
2022-11-13T12:03:44.070Z,101306.81
2022-11-13T12:06:38.895Z,101306.44
2022-11-13T12:09:30.669Z,101300.81
2022-11-13T12:12:37.822Z,101296.81
2022-11-13T12:15:37.787Z,101275.59
2022-11-13T12:18:48.603Z,101273.69
2022-11-13T12:22:04.027Z,101282.44
2022-11-13T12:25:09.512Z,101262.16
2022-11-13T12:28:16.890Z,101261.00
2022-11-13T12:31:39.106Z,101258.19
2022-11-13T12:34:30.006Z,101250.75
2022-11-13T12:37:52.258Z,101246.53
2022-11-13T12:41:20.689Z,101240.87
2022-11-13T12:44:27.338Z,101246.63
2022-11-13T12:47:13.620Z,101241.53
2022-11-13T12:50:05.052Z,101230.03
2022-11-13T12:53:06.342Z,101233.37
2022-11-13T12:56:00.952Z,101227.84
2022-11-13T12:59:23.764Z,101222.12
2022-11-13T13:02:09.197Z,101223.84
2022-11-13T13:05:07.202Z,101228.16
2022-11-13T13:08:05.491Z,101217.44
2022-11-13T13:10:56.139Z,101224.53
2022-11-13T13:13:47.300Z,101215.72
2022-11-13T13:16:33.212Z,101214.91
2022-11-13T13:19:29.395Z,101214.59
2022-11-13T13:22:32.816Z,101220.28
2022-11-13T13:25:33.617Z,101219.63
2022-11-13T13:28:24.310Z,101217.91
2022-11-13T13:31:12.933Z,101220.59
2022-11-13T13:34:23.041Z,101220.78
2022-11-13T13:37:23.750Z,101213.78
2022-11-13T13:40:15.319Z,101219.25
2022-11-13T13:43:42.924Z,101208.84
2022-11-13T13:46:31.238Z,101206.75
2022-11-13T13:49:20.510Z,101203.94
2022-11-13T13:52:06.545Z,101208.41
2022-11-13T13:54:52.831Z,101202.22
2022-11-13T13:57:41.284Z,101196.41
2022-11-13T14:00:27.549Z,101195.91
2022-11-13T14:03:19.863Z,101196.19
2022-11-13T14:06:24.516Z,101200.03
2022-11-13T14:09:15.615Z,101199.63
2022-11-13T14:12:09.017Z,101196.41
2022-11-13T14:14:55.674Z,101189.28
2022-11-13T14:17:41.470Z,101197.97
2022-11-13T14:20:27.288Z,101196.16
2022-11-13T14:23:15.855Z,101192.31
2022-11-13T14:26:03.000Z,101204.38
2022-11-13T14:28:56.008Z,101202.56
2022-11-13T14:31:41.921Z,101195.78
2022-11-13T14:34:27.555Z,101200.72
2022-11-13T14:37:23.057Z,101203.53
2022-11-13T14:40:33.979Z,101189.50
2022-11-13T14:43:29.833Z,101203.50
2022-11-13T14:46:36.852Z,101190.44
2022-11-13T14:49:33.829Z,101186.47
2022-11-13T14:52:28.286Z,101198.44
2022-11-13T14:55:22.986Z,101190.16
2022-11-13T14:58:13.645Z,101189.41
2022-11-13T15:01:12.004Z,101182.53
2022-11-13T15:03:58.484Z,101180.78
2022-11-13T15:06:44.819Z,101176.22
2022-11-13T15:09:31.227Z,101177.28
2022-11-13T15:12:17.227Z,101181.22
2022-11-13T15:15:03.228Z,101178.88
2022-11-13T15:17:50.604Z,101178.44
2022-11-13T15:20:36.741Z,101176.50
2022-11-13T15:23:23.266Z,101170.19
2022-11-13T15:26:11.464Z,101181.06
2022-11-13T15:28:57.741Z,101178.16
2022-11-13T15:31:45.575Z,101176.19
2022-11-13T15:34:31.920Z,101172.94
2022-11-13T15:37:18.330Z,101185.22
2022-11-13T15:40:05.016Z,101178.44
2022-11-13T15:42:50.976Z,101168.09
2022-11-13T15:45:41.226Z,101170.03
2022-11-13T15:48:29.773Z,101165.63
2022-11-13T15:51:28.142Z,101175.59
2022-11-13T15:54:25.636Z,101176.69
2022-11-13T15:57:19.054Z,101178.53
2022-11-13T16:00:16.747Z,101179.09
2022-11-13T16:03:04.878Z,101175.66
2022-11-13T16:05:53.526Z,101179.59
2022-11-13T16:08:39.805Z,101185.16
2022-11-13T16:11:25.853Z,101199.78
2022-11-13T16:14:11.679Z,101181.16
2022-11-13T16:16:57.378Z,101177.62
2022-11-13T16:19:46.267Z,101169.34
2022-11-13T16:22:32.892Z,101174.28
2022-11-13T16:25:20.954Z,101164.88
2022-11-13T16:28:18.109Z,101154.88
2022-11-13T16:31:04.074Z,101160.25
2022-11-13T16:33:50.424Z,101167.69
2022-11-13T16:36:37.628Z,101166.16
2022-11-13T16:39:24.132Z,101160.59
2022-11-13T16:42:11.290Z,101167.06
2022-11-13T16:44:58.083Z,101170.34
2022-11-13T16:47:44.475Z,101161.56
2022-11-13T16:50:32.468Z,101159.66
2022-11-13T16:53:19.187Z,101170.66
2022-11-13T16:56:32.653Z,101168.59
2022-11-13T16:59:20.558Z,101167.41
2022-11-13T17:02:17.867Z,101162.03
2022-11-13T17:05:05.025Z,101163.44
2022-11-13T17:07:57.409Z,101165.72
2022-11-13T17:10:43.648Z,101170.13
2022-11-13T17:13:30.834Z,101169.31
2022-11-13T17:16:18.473Z,101169.41
2022-11-13T17:19:04.546Z,101168.25
2022-11-13T17:21:50.932Z,101159.66
2022-11-13T17:24:39.989Z,101165.84
2022-11-13T17:27:26.650Z,101155.84
2022-11-13T17:30:13.801Z,101155.84
2022-11-13T17:33:00.246Z,101148.06
2022-11-13T17:35:54.123Z,101152.47
2022-11-13T17:38:40.359Z,101143.91
2022-11-13T17:41:26.683Z,101146.31
2022-11-13T17:44:12.872Z,101145.00
2022-11-13T17:46:59.910Z,101142.31
2022-11-13T17:49:45.995Z,101147.41
2022-11-13T17:52:32.498Z,101141.72
2022-11-13T17:55:19.338Z,101135.16
2022-11-13T17:58:05.568Z,101139.69
2022-11-13T18:00:52.412Z,101135.91
2022-11-13T18:03:39.155Z,101149.09
2022-11-13T18:06:26.346Z,101147.56
2022-11-13T18:09:13.798Z,101151.56
2022-11-13T18:12:00.357Z,101153.94
2022-11-13T18:14:52.272Z,101151.87
2022-11-13T18:17:39.180Z,101159.75
2022-11-13T18:20:25.399Z,101157.56
2022-11-13T18:23:11.727Z,101163.63
2022-11-13T18:25:58.072Z,101164.91
2022-11-13T18:28:45.300Z,101161.94
2022-11-13T18:31:31.997Z,101156.72
2022-11-13T18:34:18.524Z,101148.91
2022-11-13T18:37:05.060Z,101158.09
2022-11-13T18:39:51.387Z,101155.09
2022-11-13T18:42:38.060Z,101153.84
2022-11-13T18:45:24.530Z,101154.66
2022-11-13T18:48:11.459Z,101163.91
2022-11-13T18:50:59.524Z,101158.31
2022-11-13T18:53:48.661Z,101167.31
2022-11-13T18:56:36.243Z,101170.81
2022-11-13T18:59:22.234Z,101173.97
2022-11-13T19:02:10.517Z,101163.41
2022-11-13T19:04:57.071Z,101171.28
2022-11-13T19:07:43.918Z,101173.00
2022-11-13T19:10:30.442Z,101169.81
2022-11-13T19:13:17.076Z,101168.53
2022-11-13T19:16:15.893Z,101156.44
2022-11-13T19:19:08.770Z,101148.84
2022-11-13T19:21:55.134Z,101161.28
2022-11-13T19:24:50.436Z,101169.00
2022-11-13T19:27:37.133Z,101169.16
2022-11-13T19:30:23.506Z,101166.78
2022-11-13T19:33:10.525Z,101170.31
2022-11-13T19:35:56.836Z,101160.56
2022-11-13T19:38:44.057Z,101167.66
2022-11-13T19:41:30.989Z,101171.63
2022-11-13T19:44:17.709Z,101168.44
2022-11-13T19:47:04.186Z,101175.53
2022-11-13T19:49:50.869Z,101172.41
2022-11-13T19:52:36.671Z,101166.69
2022-11-13T19:55:23.402Z,101171.16
2022-11-13T19:58:10.208Z,101170.91
2022-11-13T20:00:57.223Z,101165.19
2022-11-13T20:03:43.827Z,101168.34
2022-11-13T20:06:32.974Z,101156.88
2022-11-13T20:09:19.493Z,101170.16
2022-11-13T20:12:08.992Z,101162.59
2022-11-13T20:14:56.762Z,101168.91
2022-11-13T20:17:43.491Z,101168.69
2022-11-13T20:20:29.892Z,101166.63
2022-11-13T20:23:15.835Z,101168.91
2022-11-13T20:26:04.966Z,101164.19
2022-11-13T20:28:51.087Z,101167.12
2022-11-13T20:31:37.320Z,101167.12
2022-11-13T20:34:24.010Z,101168.97
2022-11-13T20:37:10.408Z,101164.09
2022-11-13T20:39:57.201Z,101169.88
2022-11-13T20:42:43.194Z,101169.84
2022-11-13T20:45:29.525Z,101154.97
2022-11-13T20:48:16.129Z,101173.84
2022-11-13T20:51:11.154Z,101169.69
2022-11-13T20:53:57.603Z,101172.22
2022-11-13T20:56:44.922Z,101167.34
2022-11-13T20:59:31.374Z,101161.97
2022-11-13T21:02:18.142Z,101159.97
2022-11-13T21:05:04.640Z,101155.31
2022-11-13T21:07:50.283Z,101149.56
2022-11-13T21:10:36.260Z,101154.84
2022-11-13T21:13:22.402Z,101149.81
2022-11-13T21:16:09.537Z,101151.28
2022-11-13T21:18:59.618Z,101154.06
2022-11-13T21:21:45.498Z,101149.69
2022-11-13T21:24:31.988Z,101147.44
2022-11-13T21:27:17.802Z,101157.88
2022-11-13T21:30:03.733Z,101163.38
2022-11-13T21:32:49.576Z,101166.31
2022-11-13T21:35:35.286Z,101163.03
2022-11-13T21:38:21.315Z,101160.72
2022-11-13T21:41:26.859Z,101157.81
2022-11-13T21:44:13.302Z,101161.16
2022-11-13T21:46:59.958Z,101165.87
2022-11-13T21:49:45.699Z,101164.75
2022-11-13T21:52:31.410Z,101158.94
2022-11-13T21:55:17.290Z,101151.94
2022-11-13T21:58:03.029Z,101168.34
2022-11-13T22:00:48.695Z,101160.47
2022-11-13T22:03:34.504Z,101147.12
2022-11-13T22:06:20.624Z,101150.94
2022-11-13T22:09:13.590Z,101157.56
2022-11-13T22:11:59.622Z,101149.22
2022-11-13T22:14:45.264Z,101144.75
2022-11-13T22:17:30.934Z,101151.06
2022-11-13T22:20:16.926Z,101149.88
2022-11-13T22:23:05.607Z,101153.53
2022-11-13T22:25:57.067Z,101145.63
2022-11-13T22:28:45.074Z,101147.78
2022-11-13T22:31:31.828Z,101147.66
2022-11-13T22:34:18.254Z,101145.19
2022-11-13T22:37:04.279Z,101135.28
2022-11-13T22:39:49.962Z,101130.25
2022-11-13T22:42:35.521Z,101137.56
2022-11-13T22:45:24.021Z,101131.47
2022-11-13T22:48:11.258Z,101123.62
2022-11-13T22:51:02.880Z,101116.88
2022-11-13T22:53:56.171Z,101114.84
2022-11-13T22:56:42.386Z,101110.28
2022-11-13T22:59:28.414Z,101111.03
2022-11-13T23:02:14.344Z,101096.00
2022-11-13T23:05:00.207Z,101097.81
2022-11-13T23:07:46.093Z,101093.09
2022-11-13T23:10:31.702Z,101097.78
2022-11-13T23:13:17.473Z,101086.59
2022-11-13T23:16:03.620Z,101092.62
2022-11-13T23:18:51.267Z,101086.00
2022-11-13T23:21:37.287Z,101094.00
2022-11-13T23:24:24.365Z,101090.81
2022-11-13T23:27:10.237Z,101090.84
2022-11-13T23:29:56.021Z,101080.94
2022-11-13T23:32:41.571Z,101081.84
2022-11-13T23:35:27.738Z,101082.06
2022-11-13T23:38:13.967Z,101087.47
2022-11-13T23:41:00.653Z,101091.97
2022-11-13T23:46:52.248Z,101089.03
2022-11-13T23:49:37.973Z,101086.00
2022-11-13T23:52:23.851Z,101088.56
2022-11-13T23:55:10.642Z,101093.63
2022-11-13T23:57:58.189Z,101095.78
